Time;durP1;ratioP1;P1;durP2;ratioP2;P2;SDS_P1;SDS_P2;PMS_P1;PMS_P2;Temp;Humidity;BMP_temperature;BMP_pressure;BME280_temperature;BME280_humidity;BME280_pressure;Samples;Min_cycle;Max_cycle;Signal;HPM_P1;HPM_P2
2023/09/15 00:00:47;;;;;;;25.20;20.90;;;;;;;26.14;73.06;99291.13;109749;1250;68412;-54
2023/09/15 00:03:15;;;;;;;24.30;20.30;;;;;;;26.08;73.46;99293.62;109725;1251;71206;-53
2023/09/15 00:05:41;;;;;;;24.10;21.60;;;;;;;26.05;73.81;99291.44;109757;1251;60474;-53
2023/09/15 00:08:09;;;;;;;24.60;20.90;;;;;;;25.97;74.37;99293.71;109687;1251;58910;-54
2023/09/15 00:10:38;;;;;;;26.20;21.80;;;;;;;25.98;74.55;99301.90;109445;1251;73197;-53
2023/09/15 00:13:05;;;;;;;22.60;20.00;;;;;;;26.05;74.37;99303.84;109576;1251;67374;-53
2023/09/15 00:15:32;;;;;;;23.80;21.20;;;;;;;26.05;74.43;99302.84;109512;1253;72527;-55
2023/09/15 00:17:59;;;;;;;27.10;21.00;;;;;;;26.08;74.20;99300.77;109392;1254;60664;-54
2023/09/15 00:20:26;;;;;;;25.60;21.00;;;;;;;26.14;73.67;99297.09;109509;1253;60152;-54
2023/09/15 00:22:53;;;;;;;26.80;21.50;;;;;;;26.05;74.20;99301.66;109502;1252;74513;-54
2023/09/15 00:25:22;;;;;;;24.30;19.70;;;;;;;26.12;73.85;99305.94;109453;1254;68530;-54
2023/09/15 00:27:49;;;;;;;;;;;;;;;26.04;74.17;99299.20;109552;1251;72565;-54
2023/09/15 00:30:16;;;;;;;23.60;20.10;;;;;;;26.09;73.82;99301.32;109501;1252;61858;-54
2023/09/15 00:32:45;;;;;;;25.40;21.50;;;;;;;26.03;74.24;99302.40;109207;1253;58983;-54
2023/09/15 00:35:14;;;;;;;23.60;19.80;;;;;;;26.00;74.47;99302.89;109540;1253;74839;-54
2023/09/15 00:37:41;;;;;;;24.80;20.80;;;;;;;25.94;74.87;99301.42;109527;1254;68566;-54
2023/09/15 00:40:09;;;;;;;22.50;20.20;;;;;;;25.92;75.31;99302.42;109566;1252;71280;-54
2023/09/15 00:42:36;;;;;;;23.00;20.20;;;;;;;26.03;74.55;99306.42;109502;1252;60843;-54
2023/09/15 00:45:09;;;;;;;25.00;20.80;;;;;;;25.99;74.81;99309.54;109469;1254;60310;-54
2023/09/15 00:47:36;;;;;;;23.80;21.30;;;;;;;25.99;75.12;99310.89;109539;1253;74686;-54
2023/09/15 00:50:05;;;;;;;26.10;20.90;;;;;;;25.81;76.18;99312.33;109475;1254;68253;-54
2023/09/15 00:52:33;;;;;;;26.80;22.00;;;;;;;25.64;77.74;99312.90;109507;1253;71224;-54
2023/09/15 00:55:01;;;;;;;27.70;21.30;;;;;;;25.58;78.40;99314.80;109512;1254;61933;-54
2023/09/15 00:57:27;;;;;;;24.70;22.20;;;;;;;25.65;78.46;99317.54;109526;1254;58848;-54
2023/09/15 00:59:54;;;;;;;24.60;22.10;;;;;;;25.60;78.73;99317.36;109617;1252;73312;-54
2023/09/15 01:02:21;;;;;;;24.30;21.70;;;;;;;25.51;79.68;99312.08;109585;1254;68754;-54
2023/09/15 01:04:47;;;;;;;25.70;22.40;;;;;;;25.49;79.75;99311.73;109501;1254;72601;-53
2023/09/15 01:07:14;;;;;;;26.60;22.50;;;;;;;25.51;79.92;99315.20;109546;1253;61801;-54
2023/09/15 01:09:41;;;;;;;26.80;22.40;;;;;;;25.37;80.69;99313.02;109550;1252;60415;-54
2023/09/15 01:12:08;;;;;;;26.40;22.80;;;;;;;25.37;80.88;99315.84;109599;1251;73240;-54
2023/09/15 01:14:35;;;;;;;28.50;22.70;;;;;;;25.51;79.89;99317.58;109657;1251;67259;-54
2023/09/15 01:17:16;;;;;;;27.70;22.30;;;;;;;25.43;80.24;99317.55;109386;1253;71627;-54
2023/09/15 01:19:54;;;;;;;29.10;23.30;;;;;;;25.53;79.67;99324.59;109558;1253;61892;-54
2023/09/15 01:22:49;;;;;;;27.60;23.60;;;;;;;25.57;79.55;99324.36;109600;1251;60503;-54
2023/09/15 01:25:34;;;;;;;26.70;23.30;;;;;;;25.78;77.92;99328.90;109587;1251;74549;-54
2023/09/15 01:28:16;;;;;;;28.60;24.00;;;;;;;25.78;77.73;99329.98;109735;1251;67440;-54
2023/09/15 01:30:43;;;;;;;27.70;23.40;;;;;;;25.73;78.07;99329.04;109454;1251;72836;-53
2023/09/15 01:33:13;;;;;;;28.20;22.80;;;;;;;25.71;78.13;99332.92;109477;1250;60549;-54
2023/09/15 01:35:40;;;;;;;25.20;22.60;;;;;;;25.73;78.09;99331.45;109627;1250;60136;-54
2023/09/15 01:38:07;;;;;;;25.60;22.50;;;;;;;25.68;78.21;99332.85;109774;1250;74515;-54
2023/09/15 01:40:33;;;;;;;26.80;22.10;;;;;;;25.83;77.17;99336.47;109735;1250;68496;-54
2023/09/15 01:43:00;;;;;;;27.60;22.30;;;;;;;25.92;76.53;99338.30;109714;1250;72485;-54
2023/09/15 01:45:27;;;;;;;27.50;23.20;;;;;;;25.92;76.58;99339.41;109661;1251;60574;-54
2023/09/15 01:47:54;;;;;;;29.30;24.10;;;;;;;25.87;76.42;99339.77;109769;1250;60170;-54
2023/09/15 01:50:21;;;;;;;27.50;24.40;;;;;;;25.78;76.67;99339.59;109761;1250;74538;-54
2023/09/15 01:52:48;;;;;;;26.10;22.60;;;;;;;25.63;77.68;99343.65;109593;1251;68602;-54
2023/09/15 01:55:15;;;;;;;26.60;22.60;;;;;;;25.58;77.99;99342.84;109739;1250;72461;-54
2023/09/15 01:57:42;;;;;;;27.80;23.70;;;;;;;24.85;83.09;99337.77;109562;1253;61810;-54
2023/09/15 02:00:10;;;;;;;28.40;23.50;;;;;;;24.87;83.78;99338.82;109449;1251;60041;-54
2023/09/15 02:02:39;;;;;;;28.30;24.10;;;;;;;24.93;83.85;99343.98;109745;1250;73405;-54
2023/09/15 02:05:07;;;;;;;33.00;23.10;;;;;;;25.25;81.65;99349.70;109761;1250;67405;-54
2023/09/15 02:07:34;;;;;;;31.90;23.70;;;;;;;24.91;83.96;99349.42;109649;1251;71119;-54
2023/09/15 02:10:01;;;;;;;28.00;25.10;;;;;;;25.32;81.54;99349.16;109736;1251;60613;-54
2023/09/15 02:12:28;;;;;;;28.90;25.50;;;;;;;25.58;79.67;99349.37;109666;1251;58948;-54
2023/09/15 02:14:54;;;;;;;26.90;24.00;;;;;;;25.65;78.76;99353.59;109636;1253;73552;-54
2023/09/15 02:17:21;;;;;;;28.00;25.10;;;;;;;25.24;81.33;99352.59;109555;1251;69406;-54
2023/09/15 02:19:49;;;;;;;30.00;24.40;;;;;;;24.98;83.51;99354.23;109506;1252;72507;-54
2023/09/15 02:22:16;;;;;;;29.40;24.90;;;;;;;24.92;84.32;99357.38;109493;1251;61745;-54
2023/09/15 02:24:43;;;;;;;27.50;24.40;;;;;;;25.04;83.75;99359.25;109765;1250;58929;-54
2023/09/15 02:27:10;;;;;;;26.70;23.80;;;;;;;25.17;82.59;99357.06;109783;1250;73225;-54
2023/09/15 02:29:37;;;;;;;31.10;25.00;;;;;;;25.21;81.96;99356.70;109466;1250;67701;-54
2023/09/15 02:32:04;;;;;;;25.70;22.70;;;;;;;25.12;82.10;99358.50;109743;1250;72647;-54
2023/09/15 02:34:30;;;;;;;30.30;22.90;;;;;;;24.98;82.89;99355.33;109728;1250;61839;-54
2023/09/15 02:36:57;;;;;;;25.20;22.10;;;;;;;24.99;82.58;99352.28;109654;1251;60137;-53
2023/09/15 02:39:24;;;;;;;26.30;22.70;;;;;;;24.80;83.67;99351.11;109223;1251;73358;-53
2023/09/15 02:41:51;;;;;;;25.70;22.00;;;;;;;24.86;83.36;99354.34;109635;1250;69038;-53
2023/09/15 02:44:18;;;;;;;26.70;23.80;;;;;;;24.81;83.38;99358.11;109695;1250;72756;-54
2023/09/15 02:46:45;;;;;;;26.00;22.80;;;;;;;24.89;82.95;99362.48;109723;1251;60712;-54
2023/09/15 02:49:11;;;;;;;26.80;23.00;;;;;;;25.16;81.09;99366.59;109719;1250;59977;-53
2023/09/15 02:51:38;;;;;;;32.50;21.60;;;;;;;25.08;81.38;99373.15;109743;1250;73065;-53
2023/09/15 02:54:06;;;;;;;25.60;22.40;;;;;;;25.06;81.47;99374.41;109229;1251;68546;-54
2023/09/15 02:56:33;;;;;;;23.20;20.70;;;;;;;25.00;81.73;99380.88;109711;1250;72683;-53
2023/09/15 02:58:59;;;;;;;25.00;20.60;;;;;;;24.83;82.87;99384.53;109680;1250;62121;-53
2023/09/15 03:01:26;;;;;;;24.60;21.60;;;;;;;24.91;82.63;99388.48;109371;1256;60144;-54
2023/09/15 03:03:53;;;;;;;25.80;20.70;;;;;;;24.85;83.04;99392.33;109338;1256;75018;-53
2023/09/15 03:06:20;;;;;;;23.00;20.00;;;;;;;24.84;83.08;99389.55;109400;1251;67441;-53
2023/09/15 03:08:47;;;;;;;21.50;18.90;;;;;;;24.91;82.67;99388.27;109572;1251;72771;-53
2023/09/15 03:11:16;;;;;;;26.20;21.80;;;;;;;24.91;82.58;99393.35;109677;1250;61900;-53
2023/09/15 03:13:43;;;;;;;23.00;19.90;;;;;;;24.77;83.41;99391.28;109470;1253;58957;-53
2023/09/15 03:16:11;;;;;;;22.60;20.30;;;;;;;24.60;85.07;99390.84;109436;1253;74570;-53
2023/09/15 03:18:38;;;;;;;;;;;;;;;24.57;85.77;99394.36;109216;1252;68710;-54
2023/09/15 03:21:05;;;;;;;26.60;21.00;;;;;;;24.73;84.46;99396.48;109253;1252;71784;-54
2023/09/15 03:23:32;;;;;;;23.40;20.00;;;;;;;24.80;83.91;99399.43;109624;1251;60451;-54
2023/09/15 03:26:02;;;;;;;22.90;19.40;;;;;;;24.80;83.85;99400.91;109758;1250;59499;-54
2023/09/15 03:28:31;;;;;;;28.10;20.60;;;;;;;24.78;84.16;99404.38;109612;1251;75335;-55
2023/09/15 03:30:59;;;;;;;22.10;19.70;;;;;;;24.85;83.93;99401.06;109780;1250;69030;-54
2023/09/15 03:33:27;;;;;;;25.20;20.90;;;;;;;24.96;83.19;99407.52;109227;1251;72627;-54
2023/09/15 03:35:53;;;;;;;21.40;18.30;;;;;;;25.05;82.61;99413.00;109682;1250;61905;-53
2023/09/15 03:38:21;;;;;;;24.50;19.40;;;;;;;25.15;81.88;99414.90;109735;1250;60169;-55
2023/09/15 03:40:49;;;;;;;22.40;18.70;;;;;;;25.14;81.62;99426.42;109493;1250;73225;-54
2023/09/15 03:43:16;;;;;;;21.10;18.70;;;;;;;25.09;82.60;99426.90;109591;1251;68659;-54
2023/09/15 03:45:44;;;;;;;28.10;20.40;;;;;;;25.23;81.32;99430.89;109741;1251;72589;-54
2023/09/15 03:48:10;;;;;;;29.50;23.00;;;;;;;25.13;82.17;99434.85;109703;1250;60156;-54
2023/09/15 03:50:37;;;;;;;26.00;23.10;;;;;;;25.12;82.45;99439.40;109589;1251;58881;-53
2023/09/15 03:53:04;;;;;;;21.30;18.80;;;;;;;25.18;82.17;99440.25;109751;1250;73458;-54
2023/09/15 03:55:30;;;;;;;24.80;19.20;;;;;;;25.28;81.55;99444.59;109803;1250;67632;-54
2023/09/15 03:57:57;;;;;;;24.20;20.50;;;;;;;25.33;81.36;99443.30;109732;1250;71235;-53
2023/09/15 04:00:24;;;;;;;20.50;17.00;;;;;;;25.27;81.95;99449.29;109544;1253;61991;-53
2023/09/15 04:02:51;;;;;;;19.40;16.50;;;;;;;25.16;82.57;99448.84;109709;1250;59114;-52
2023/09/15 04:05:18;;;;;;;17.20;15.40;;;;;;;24.96;84.29;99451.21;109748;1250;74493;-52
2023/09/15 04:07:45;;;;;;;18.40;16.10;;;;;;;24.99;84.17;99448.33;109719;1250;67365;-53
2023/09/15 04:10:12;;;;;;;17.00;14.90;;;;;;;24.97;84.56;99453.73;109677;1250;71287;-52
2023/09/15 04:12:41;;;;;;;17.80;14.40;;;;;;;24.97;84.71;99453.43;109543;1250;61939;-52
2023/09/15 04:15:11;;;;;;;16.00;14.30;;;;;;;24.64;86.90;99452.08;109461;1253;59990;-52
2023/09/15 04:17:38;;;;;;;16.10;14.30;;;;;;;24.40;89.21;99459.23;109556;1251;74752;-52
2023/09/15 04:20:09;;;;;;;19.80;16.00;;;;;;;24.61;88.28;99459.53;109580;1251;68650;-53
2023/09/15 04:22:37;;;;;;;17.20;13.60;;;;;;;24.68;87.91;99462.16;109388;1251;72477;-53
2023/09/15 04:25:05;;;;;;;15.90;14.30;;;;;;;24.63;88.35;99468.52;109705;1250;61794;-52
2023/09/15 04:27:33;;;;;;;16.20;14.00;;;;;;;24.36;90.49;99466.56;109593;1251;59004;-52
2023/09/15 04:30:00;;;;;;;13.50;11.10;;;;;;;24.37;90.73;99468.95;109509;1251;157108;-54
2023/09/15 04:32:31;;;;;;;15.00;11.30;;;;;;;24.29;91.66;99470.27;109437;1251;68678;-53
2023/09/15 04:34:58;;;;;;;12.30;11.10;;;;;;;24.35;91.38;99474.98;109718;1250;71293;-53
2023/09/15 04:37:25;;;;;;;12.10;10.80;;;;;;;24.27;92.28;99474.54;109214;1251;60916;-53
2023/09/15 04:39:54;;;;;;;11.50;10.00;;;;;;;24.22;92.76;99478.61;109720;1250;58778;-52
2023/09/15 04:42:21;;;;;;;15.70;12.40;;;;;;;24.25;92.32;99481.36;109593;1251;74755;-54
2023/09/15 04:44:48;;;;;;;16.30;12.10;;;;;;;24.30;92.03;99481.99;109578;1251;67719;-53
2023/09/15 04:47:42;;;;;;;13.30;10.60;;;;;;;24.34;92.33;99486.23;109419;1250;72251;-53
2023/09/15 04:50:17;;;;;;;11.60;10.20;;;;;;;24.50;90.75;99488.86;108986;1257;60774;-53
2023/09/15 04:52:44;;;;;;;11.70;9.20;;;;;;;24.48;90.77;99489.49;109050;1257;60355;-54
2023/09/15 04:55:11;;;;;;;14.70;10.40;;;;;;;24.66;89.95;99489.99;108952;1257;74697;-53
2023/09/15 04:57:38;;;;;;;12.70;11.50;;;;;;;24.67;89.88;99493.97;109045;1257;68625;-54
2023/09/15 05:00:12;;;;;;;13.30;11.10;;;;;;;24.68;89.76;99493.02;109019;1257;72663;-53
2023/09/15 05:02:44;;;;;;;11.00;9.90;;;;;;;24.69;89.91;99500.75;109009;1258;60735;-53
2023/09/15 05:05:11;;;;;;;10.50;9.40;;;;;;;24.60;90.31;99501.55;109010;1257;60000;-53
2023/09/15 05:07:39;;;;;;;10.50;9.40;;;;;;;24.55;91.14;99503.41;109025;1257;73582;-53
2023/09/15 05:10:07;;;;;;;11.50;8.10;;;;;;;24.51;92.24;99504.55;109099;1257;68568;-53
2023/09/15 05:12:35;;;;;;;8.30;7.40;;;;;;;24.63;91.25;99511.41;109060;1257;71255;-53
2023/09/15 05:15:03;;;;;;;8.90;7.10;;;;;;;24.64;90.92;99513.02;109030;1257;60894;-52
2023/09/15 05:17:30;;;;;;;8.00;7.20;;;;;;;24.72;90.00;99514.02;108974;1257;59086;-53
2023/09/15 05:19:57;;;;;;;7.80;7.00;;;;;;;24.59;90.40;99516.10;109005;1257;74434;-53
2023/09/15 05:22:23;;;;;;;9.00;6.70;;;;;;;24.76;89.59;99519.39;109049;1257;67265;-52
2023/09/15 05:24:50;;;;;;;6.60;5.90;;;;;;;24.64;90.28;99520.30;108921;1259;72512;-52
2023/09/15 05:27:19;;;;;;;7.30;6.00;;;;;;;24.84;89.09;99528.05;109281;1251;61015;-53
2023/09/15 05:29:46;;;;;;;9.40;6.40;;;;;;;24.85;89.27;99532.63;109563;1252;60282;-53
2023/09/15 05:32:13;;;;;;;7.00;5.20;;;;;;;24.78;89.65;99534.42;109563;1252;73261;-53
2023/09/15 05:34:40;;;;;;;4.80;4.10;;;;;;;24.76;88.60;99536.17;109589;1251;67707;-54
2023/09/15 05:37:07;;;;;;;5.30;3.60;;;;;;;24.68;88.75;99534.90;109560;1252;72190;-52
2023/09/15 05:39:33;;;;;;;5.80;5.30;;;;;;;24.79;87.38;99539.84;109515;1252;61939;-52
2023/09/15 05:42:00;;;;;;;4.40;3.80;;;;;;;24.45;88.87;99534.40;109211;1252;59283;-52
2023/09/15 05:44:27;;;;;;;6.80;4.80;;;;;;;24.18;90.54;99539.61;109426;1255;74481;-52
2023/09/15 05:46:53;;;;;;;4.10;3.40;;;;;;;24.12;91.59;99540.84;109495;1252;68478;-52
2023/09/15 05:49:20;;;;;;;4.80;3.40;;;;;;;24.07;92.13;99543.45;109545;1251;70965;-52
2023/09/15 05:51:47;;;;;;;5.30;3.90;;;;;;;24.14;91.49;99546.63;109390;1254;60030;-52
2023/09/15 05:54:14;;;;;;;3.80;3.00;;;;;;;23.94;92.97;99547.02;109525;1252;59024;-52
2023/09/15 05:56:40;;;;;;;3.40;2.70;;;;;;;23.76;94.06;99545.27;109583;1252;74645;-52
2023/09/15 05:59:08;;;;;;;3.10;2.30;;;;;;;23.71;94.42;99548.21;109561;1252;68669;-51
2023/09/15 06:01:34;;;;;;;2.80;2.50;;;;;;;23.70;95.22;99547.95;109522;1252;73124;-51
2023/09/15 06:04:01;;;;;;;2.20;2.00;;;;;;;23.83;94.23;99551.98;109566;1252;60545;-51
2023/09/15 06:06:28;;;;;;;2.10;2.00;;;;;;;23.80;94.22;99551.98;109566;1252;60318;-51
2023/09/15 06:08:54;;;;;;;3.00;2.70;;;;;;;23.75;94.33;99555.34;109575;1251;74671;-51
2023/09/15 06:11:21;;;;;;;3.70;2.50;;;;;;;24.03;92.81;99560.38;109544;1252;68510;-52
2023/09/15 06:13:48;;;;;;;3.70;3.00;;;;;;;23.99;93.41;99561.50;109497;1252;72590;-51
2023/09/15 06:16:15;;;;;;;5.60;3.40;;;;;;;24.10;92.87;99569.21;109528;1252;61819;-52
2023/09/15 06:18:41;;;;;;;5.30;3.40;;;;;;;24.29;91.58;99570.36;109592;1251;59023;-51
2023/09/15 06:21:09;;;;;;;5.80;3.90;;;;;;;24.21;91.06;99572.70;109671;1251;74365;-51
2023/09/15 06:23:36;;;;;;;3.70;3.10;;;;;;;24.23;90.68;99575.27;109670;1251;68544;-51
2023/09/15 06:26:03;;;;;;;4.40;3.50;;;;;;;24.08;91.34;99576.03;109651;1250;71338;-51
2023/09/15 06:28:30;;;;;;;5.50;4.50;;;;;;;23.98;92.73;99579.79;109699;1250;60415;-51
2023/09/15 06:30:56;;;;;;;10.30;7.40;;;;;;;23.99;92.79;99585.39;109717;1250;58921;-51
2023/09/15 06:33:23;;;;;;;9.70;7.50;;;;;;;24.16;91.45;99590.32;109725;1250;73316;-52
2023/09/15 06:35:50;;;;;;;13.80;11.90;;;;;;;24.11;91.44;99592.42;109766;1250;68647;-51
2023/09/15 06:38:17;;;;;;;10.10;8.60;;;;;;;24.12;91.19;99593.56;109565;1251;72463;-53
2023/09/15 06:40:44;;;;;;;11.30;10.00;;;;;;;24.17;90.38;99601.17;109666;1250;61624;-53
2023/09/15 06:43:11;;;;;;;10.90;9.30;;;;;;;24.29;89.62;99602.85;109740;1250;58954;-53
2023/09/15 06:45:38;;;;;;;16.30;12.90;;;;;;;24.29;88.89;99606.63;109721;1250;73304;-53
2023/09/15 06:48:04;;;;;;;17.90;13.80;;;;;;;24.31;88.91;99609.05;109687;1250;68523;-53
2023/09/15 06:50:31;;;;;;;12.20;9.80;;;;;;;24.18;88.02;99606.84;109366;1251;72736;-51
2023/09/15 06:52:58;;;;;;;8.30;7.40;;;;;;;24.31;87.12;99613.11;109426;1251;61660;-52
2023/09/15 06:55:25;;;;;;;6.30;5.70;;;;;;;24.41;85.99;99613.43;109469;1255;61753;-52
2023/09/15 06:57:52;;;;;;;11.80;10.10;;;;;;;24.51;84.10;99613.83;109696;1250;74487;-52
2023/09/15 07:00:19;;;;;;;8.30;7.50;;;;;;;24.47;84.15;99618.23;109727;1250;68398;-52
2023/09/15 07:02:46;;;;;;;6.70;6.10;;;;;;;24.53;83.12;99628.16;109690;1250;71372;-53
2023/09/15 07:05:12;;;;;;;6.10;5.20;;;;;;;24.53;82.62;99627.21;109727;1250;60800;-53
2023/09/15 07:07:39;;;;;;;6.00;5.30;;;;;;;24.61;82.84;99629.66;109765;1250;58988;-52
2023/09/15 07:10:07;;;;;;;5.30;4.80;;;;;;;24.74;82.77;99632.62;109566;1251;73854;-52
2023/09/15 07:12:34;;;;;;;7.70;6.10;;;;;;;24.86;80.75;99635.02;109355;1251;67710;-52
2023/09/15 07:15:04;;;;;;;6.90;6.00;;;;;;;24.89;79.95;99634.08;109489;1251;72567;-52
2023/09/15 07:17:31;;;;;;;6.60;4.70;;;;;;;24.64;80.15;99637.67;109550;1252;60406;-53
2023/09/15 07:19:57;;;;;;;9.10;5.90;;;;;;;24.57;80.43;99635.79;109529;1252;60116;-53
2023/09/15 07:22:26;;;;;;;5.30;4.80;;;;;;;24.63;79.80;99634.43;109571;1251;73263;-52
2023/09/15 07:24:53;;;;;;;5.10;3.70;;;;;;;24.79;80.50;99641.70;109661;1251;68736;-52
2023/09/15 07:27:20;;;;;;;4.80;3.30;;;;;;;25.11;78.74;99637.46;109696;1250;72728;-52
2023/09/15 07:29:47;;;;;;;3.30;2.60;;;;;;;24.96;77.57;99638.38;109341;1251;59465;-53
2023/09/15 07:32:14;;;;;;;2.60;2.40;;;;;;;25.04;76.51;99644.50;109674;1250;59075;-53
2023/09/15 07:34:41;;;;;;;3.40;2.40;;;;;;;25.12;75.30;99647.30;109379;1251;74614;-53
2023/09/15 07:37:08;;;;;;;3.20;2.30;;;;;;;25.16;73.95;99648.98;109711;1250;67287;-53
2023/09/15 07:39:35;;;;;;;5.30;2.80;;;;;;;25.76;72.23;99657.45;109677;1250;71227;-52
2023/09/15 07:42:05;;;;;;;3.90;3.20;;;;;;;26.54;68.56;99659.14;109603;1250;60538;-53
2023/09/15 07:44:31;;;;;;;3.30;2.40;;;;;;;26.84;63.14;99662.34;109477;1251;59271;-53
2023/09/15 07:46:58;;;;;;;2.40;2.20;;;;;;;26.30;62.73;99663.92;109734;1250;74521;-57
2023/09/15 07:49:25;;;;;;;6.40;3.80;;;;;;;26.20;63.62;99666.36;109725;1250;67642;-53
2023/09/15 07:51:52;;;;;;;3.80;2.60;;;;;;;26.32;63.60;99669.64;109703;1250;72465;-53
2023/09/15 07:54:19;;;;;;;2.70;2.10;;;;;;;26.45;62.98;99668.21;109669;1250;62091;-53
2023/09/15 07:56:46;;;;;;;2.40;2.20;;;;;;;25.89;62.26;99670.21;109387;1251;59068;-53
2023/09/15 07:59:13;;;;;;;3.60;2.30;;;;;;;25.50;63.29;99669.73;109724;1250;74503;-53
2023/09/15 08:01:40;;;;;;;2.80;2.40;;;;;;;25.51;63.88;99674.69;109739;1250;68677;-53
2023/09/15 08:04:07;;;;;;;4.90;2.30;;;;;;;25.18;64.48;99673.30;109716;1250;70640;-53
2023/09/15 08:06:34;;;;;;;3.50;2.90;;;;;;;25.24;64.85;99674.68;109706;1250;60921;-53
2023/09/15 08:09:00;;;;;;;5.70;3.40;;;;;;;25.22;64.82;99681.04;109703;1250;60085;-53
2023/09/15 08:11:27;;;;;;;7.30;4.30;;;;;;;25.33;65.45;99681.82;109789;1250;73156;-53
2023/09/15 08:13:54;;;;;;;28.90;7.80;;;;;;;25.53;63.34;99686.06;109608;1252;67709;-53
2023/09/15 08:16:21;;;;;;;9.30;5.90;;;;;;;25.42;62.55;99685.13;109552;1252;71586;-53
2023/09/15 08:18:47;;;;;;;5.10;4.20;;;;;;;25.51;61.86;99685.53;109539;1252;61640;-53
2023/09/15 08:21:14;;;;;;;6.60;3.90;;;;;;;25.44;61.67;99683.30;109562;1252;59250;-52
2023/09/15 08:23:41;;;;;;;6.70;4.70;;;;;;;25.81;61.16;99683.70;109702;1251;74489;-54
2023/09/15 08:26:08;;;;;;;5.60;4.00;;;;;;;25.84;59.94;99687.52;109667;1250;67651;-53
2023/09/15 08:28:35;;;;;;;7.10;4.90;;;;;;;25.53;61.27;99682.84;109623;1251;72714;-54
2023/09/15 08:31:02;;;;;;;7.60;5.90;;;;;;;25.30;62.16;99686.45;109693;1250;61971;-54
2023/09/15 08:33:29;;;;;;;10.10;7.70;;;;;;;25.33;62.16;99686.29;109720;1250;60919;-54
2023/09/15 08:35:55;;;;;;;21.80;14.90;;;;;;;25.45;61.16;99690.02;109658;1251;74932;-54
2023/09/15 08:38:23;;;;;;;19.10;11.00;;;;;;;25.52;60.50;99695.14;109748;1251;67506;-54
2023/09/15 08:40:52;;;;;;;7.00;4.30;;;;;;;25.83;60.15;99697.00;109645;1251;73704;-59
2023/09/15 08:43:19;;;;;;;5.20;2.40;;;;;;;25.89;57.92;99701.58;109456;1251;60966;-53
2023/09/15 08:45:46;;;;;;;7.40;4.00;;;;;;;26.12;56.04;99703.17;109570;1251;60436;-54
2023/09/15 08:48:14;;;;;;;7.70;5.00;;;;;;;26.44;52.48;99702.48;109647;1250;74349;-54
2023/09/15 08:50:40;;;;;;;4.10;3.40;;;;;;;26.56;52.64;99701.90;109693;1251;69317;-54
2023/09/15 08:53:07;;;;;;;4.80;2.10;;;;;;;26.62;52.79;99708.02;109673;1251;72263;-54
2023/09/15 08:55:34;;;;;;;1.50;1.40;;;;;;;26.48;53.13;99700.30;109637;1251;61877;-54
2023/09/15 08:58:01;;;;;;;24.70;17.00;;;;;;;26.31;53.63;99703.89;109628;1251;59154;-55
2023/09/15 09:00:28;;;;;;;34.80;24.40;;;;;;;26.09;54.98;99711.81;109670;1250;73528;-54
2023/09/15 09:02:54;;;;;;;26.20;8.70;;;;;;;25.78;56.07;99710.39;109710;1251;68782;-54
2023/09/15 09:05:21;;;;;;;19.00;13.20;;;;;;;26.08;55.85;99717.23;109678;1251;71647;-54
2023/09/15 09:07:49;;;;;;;11.10;6.80;;;;;;;26.29;54.87;99717.44;109625;1251;60682;-54
2023/09/15 09:10:16;;;;;;;6.40;4.00;;;;;;;26.67;52.62;99721.90;109402;1251;59426;-54
2023/09/15 09:12:42;;;;;;;29.80;18.60;;;;;;;26.63;51.46;99723.15;109573;1253;76061;-55
2023/09/15 09:15:10;;;;;;;33.20;19.30;;;;;;;26.37;53.03;99725.17;109551;1252;69369;-55
2023/09/15 09:17:40;;;;;;;26.10;14.40;;;;;;;26.48;52.96;99726.78;109583;1253;72723;-54
2023/09/15 09:20:08;;;;;;;25.90;13.60;;;;;;;26.18;53.71;99726.34;109591;1252;60937;-55
2023/09/15 09:22:34;;;;;;;29.80;16.70;;;;;;;25.80;54.31;99727.39;109572;1251;59040;-54
2023/09/15 09:25:02;;;;;;;20.50;10.60;;;;;;;25.85;54.53;99729.89;109675;1251;73119;-54
2023/09/15 09:27:33;;;;;;;;;;;;;;;25.89;54.13;99726.64;109746;1251;68993;-54
2023/09/15 09:30:00;;;;;;;9.60;6.50;;;;;;;25.89;53.94;99733.62;109631;1251;72550;-54
2023/09/15 09:32:27;;;;;;;7.20;6.00;;;;;;;26.03;53.66;99731.39;109680;1250;60665;-54
2023/09/15 09:34:54;;;;;;;8.30;5.40;;;;;;;25.75;54.19;99731.73;109691;1251;59041;-54
2023/09/15 09:37:28;;;;;;;10.60;7.20;;;;;;;25.65;55.24;99735.29;109660;1251;74447;-54
2023/09/15 09:39:56;;;;;;;8.00;5.40;;;;;;;25.80;54.50;99736.75;109677;1251;68526;-53
2023/09/15 09:42:24;;;;;;;6.20;5.60;;;;;;;25.72;54.23;99733.70;109661;1251;71826;-54
2023/09/15 09:44:52;;;;;;;4.80;3.20;;;;;;;25.68;54.51;99735.23;109705;1250;60441;-54
2023/09/15 09:47:21;;;;;;;8.90;3.40;;;;;;;25.60;54.14;99738.13;109718;1254;58946;-54
2023/09/15 09:49:47;;;;;;;18.90;9.30;;;;;;;25.46;53.49;99736.13;109600;1251;74489;-54
2023/09/15 09:52:14;;;;;;;9.60;4.50;;;;;;;25.49;53.78;99742.48;109714;1250;68800;-54
2023/09/15 09:54:41;;;;;;;8.60;3.40;;;;;;;25.85;53.45;99740.02;109433;1250;71531;-54
2023/09/15 09:57:07;;;;;;;8.60;4.30;;;;;;;26.14;52.20;99747.71;109739;1251;60591;-54
2023/09/15 09:59:37;;;;;;;12.80;8.10;;;;;;;26.34;51.39;99747.91;109770;1251;58885;-54
2023/09/15 10:02:04;;;;;;;19.20;10.50;;;;;;;26.28;51.37;99752.15;109759;1250;74719;-54
2023/09/15 10:04:31;;;;;;;19.10;9.40;;;;;;;26.13;52.25;99757.98;109750;1251;68299;-54
2023/09/15 10:06:58;;;;;;;12.50;6.80;;;;;;;26.05;52.12;99752.05;109692;1251;72583;-54
2023/09/15 10:09:25;;;;;;;14.60;7.20;;;;;;;26.19;52.04;99760.81;109623;1251;60473;-54
2023/09/15 10:11:55;;;;;;;11.00;7.20;;;;;;;26.65;51.73;99761.90;109606;1251;59169;-55
2023/09/15 10:14:22;;;;;;;6.70;4.40;;;;;;;26.39;51.49;99758.19;109615;1252;74874;-54
2023/09/15 10:16:49;;;;;;;11.70;6.70;;;;;;;26.45;51.50;99764.47;109613;1250;68802;-55
2023/09/15 10:19:15;;;;;;;3.80;2.90;;;;;;;26.16;51.77;99761.19;109339;1251;71431;-54
2023/09/15 10:21:42;;;;;;;10.80;6.40;;;;;;;25.90;52.60;99754.23;109543;1251;60552;-54
2023/09/15 10:24:10;;;;;;;4.50;2.60;;;;;;;26.03;52.89;99763.15;109448;1250;59280;-54
2023/09/15 10:26:43;;;;;;;3.50;2.50;;;;;;;26.21;52.26;99763.39;109700;1251;74443;-54
2023/09/15 10:29:13;;;;;;;4.20;3.00;;;;;;;26.39;51.94;99769.52;109335;1251;68807;-55
2023/09/15 10:31:46;;;;;;;3.90;2.90;;;;;;;26.46;51.95;99773.05;109729;1250;73067;-54
2023/09/15 10:34:14;;;;;;;6.70;5.20;;;;;;;26.22;52.48;99770.72;109669;1250;63252;-54
2023/09/15 10:36:43;;;;;;;6.00;3.60;;;;;;;26.23;52.46;99774.75;109339;1251;60093;-54
2023/09/15 10:39:17;;;;;;;3.60;2.10;;;;;;;25.99;53.57;99772.23;109723;1251;73909;-53
2023/09/15 10:41:43;;;;;;;1.60;1.50;;;;;;;26.08;53.39;99773.11;109725;1250;68458;-54
2023/09/15 10:44:11;;;;;;;2.60;1.30;;;;;;;26.01;53.72;99774.41;109709;1251;72545;-54
2023/09/15 10:46:40;;;;;;;1.60;1.30;;;;;;;26.07;53.76;99777.80;109628;1250;60820;-54
2023/09/15 10:49:17;;;;;;;1.80;1.60;;;;;;;26.03;53.89;99780.57;109598;1250;60312;-54
2023/09/15 10:51:57;;;;;;;2.60;1.70;;;;;;;25.90;54.30;99780.95;109647;1251;74476;-54
2023/09/15 10:54:25;;;;;;;2.80;2.60;;;;;;;25.87;54.98;99784.55;109610;1253;69877;-54
2023/09/15 10:56:52;;;;;;;;;;;;;;;25.77;55.14;99783.48;109362;1251;72763;-54
2023/09/15 10:59:19;;;;;;;9.30;5.70;;;;;;;25.83;54.93;99788.38;109601;1252;60526;-54
2023/09/15 11:01:45;;;;;;;12.80;9.10;;;;;;;25.65;55.71;99784.05;109552;1253;60200;-54
2023/09/15 11:04:13;;;;;;;15.70;10.30;;;;;;;25.82;55.47;99786.68;109699;1251;73273;-54
2023/09/15 11:06:40;;;;;;;21.20;9.70;;;;;;;25.60;56.18;99786.59;109607;1251;69785;-55
2023/09/15 11:09:07;;;;;;;22.30;10.40;;;;;;;25.44;56.56;99785.36;109611;1252;71127;-53
2023/09/15 11:11:34;;;;;;;18.70;10.30;;;;;;;25.45;57.03;99794.02;109434;1252;60626;-54
2023/09/15 11:14:01;;;;;;;23.70;13.50;;;;;;;25.49;57.24;99793.95;109599;1251;58917;-54
2023/09/15 11:16:28;;;;;;;26.50;16.40;;;;;;;25.28;58.41;99793.14;109606;1251;74646;-54
2023/09/15 11:19:01;;;;;;;22.90;14.20;;;;;;;25.25;59.18;99801.13;109558;1251;67739;-54